Terminal Aerodrome Forecast
Issued by NWS El Paso, TX

Home | Current Version | Previous Version | Text Only | Print | Product List | Glossary On
Versions: 1 2 3 4 5 6 7 8 9 10 11 12 13 14
293
FTUS44 KEPZ 302326
TAFELP
TAF
KELP 302326Z 0100/0124 24007KT P6SM VCTS SCT040CB SCT150 BKN250
     FM010400 13006KT P6SM FEW060 SCT150 BKN250
     FM011600 27010G17KT P6SM SCT050 SCT250=

USA.gov is the U.S. government's official web portal to all federal, state and local government web resources and services.